Time;durP1;ratioP1;P1;durP2;ratioP2;P2;SDS_P1;SDS_P2;PMS_P1;PMS_P2;Temp;Humidity;BMP_temperature;BMP_pressure;BME280_temperature;BME280_humidity;BME280_pressure;Samples;Min_cycle;Max_cycle;Signal;HPM_P1;HPM_P2
2022/06/06 00:00:23;;;;;;;34.07;32.47;;;18.90;99.90;;;;;;5102068;28;20531;-79
2022/06/06 00:02:52;;;;;;;33.80;32.10;;;18.90;99.90;;;;;;5101001;28;20489;-79
2022/06/06 00:05:20;;;;;;;34.93;33.13;;;18.90;99.90;;;;;;5103449;28;20492;-79
2022/06/06 00:07:50;;;;;;;35.47;33.67;;;18.90;99.90;;;;;;5104409;28;20436;-78
2022/06/06 00:10:18;;;;;;;34.17;32.57;;;18.90;99.90;;;;;;5102985;28;20459;-79
2022/06/06 00:12:46;;;;;;;36.63;34.93;;;18.80;99.90;;;;;;5100574;28;20463;-80
2022/06/06 00:15:14;;;;;;;37.97;36.20;;;18.80;99.90;;;;;;5100614;28;20539;-79
2022/06/06 00:17:43;;;;;;;33.73;32.03;;;18.80;99.90;;;;;;5101727;28;20455;-78
2022/06/06 00:20:11;;;;;;;35.00;33.20;;;18.80;99.90;;;;;;5099007;28;20446;-78
2022/06/06 00:22:40;;;;;;;34.40;32.70;;;18.80;99.90;;;;;;5098695;28;20980;-77
2022/06/06 00:25:10;;;;;;;35.10;33.40;;;18.80;99.90;;;;;;5097970;28;20666;-78
2022/06/06 00:27:38;;;;;;;37.60;35.80;;;18.70;99.90;;;;;;5103042;28;20424;-81
2022/06/06 00:30:07;;;;;;;36.00;34.20;;;18.80;99.90;;;;;;5099082;28;20503;-80
2022/06/06 00:35:21;;;;;;;36.67;34.90;;;18.60;99.90;;;;;;5098166;28;20439;-80
2022/06/06 00:37:50;;;;;;;38.33;36.43;;;18.60;99.90;;;;;;5099371;28;20452;-79
2022/06/06 00:40:22;;;;;;;39.07;37.17;;;18.50;99.90;;;;;;5098858;28;20452;-80
2022/06/06 00:42:51;;;;;;;35.70;33.90;;;18.50;99.90;;;;;;5097457;28;20412;-80
2022/06/06 00:45:32;;;;;;;37.03;35.23;;;18.50;99.90;;;;;;5099215;28;20467;-79
2022/06/06 00:48:10;;;;;;;33.40;31.80;;;18.50;99.90;;;;;;5100222;28;20428;-82
2022/06/06 00:50:52;;;;;;;35.13;33.53;;;18.40;99.90;;;;;;5099250;28;20881;-80
2022/06/06 00:53:24;;;;;;;31.67;30.27;;;18.40;99.90;;;;;;5100929;28;20427;-81
2022/06/06 00:55:58;;;;;;;31.13;29.73;;;18.30;99.90;;;;;;5099511;28;20426;-79
2022/06/06 00:58:29;;;;;;;29.80;28.40;;;18.30;99.90;;;;;;5100817;28;20440;-81
2022/06/06 01:00:57;;;;;;;39.47;37.87;;;18.30;99.90;;;;;;5099848;28;20964;-79
2022/06/06 01:03:27;;;;;;;30.50;29.20;;;18.30;99.90;;;;;;5099883;28;20535;-79
2022/06/06 01:05:57;;;;;;;38.53;37.03;;;18.30;99.90;;;;;;5099964;28;20493;-80
2022/06/06 01:08:27;;;;;;;43.97;42.37;;;18.30;99.90;;;;;;5101037;28;20555;-80
2022/06/06 01:10:56;;;;;;;49.87;47.97;;;18.30;99.90;;;;;;5100898;28;20916;-80
2022/06/06 01:13:25;;;;;;;53.10;51.13;;;18.30;99.90;;;;;;5099834;28;20447;-80
2022/06/06 01:16:12;;;;;;;45.23;43.60;;;18.20;99.90;;;;;;5099148;28;20472;-80
2022/06/06 01:18:53;;;;;;;38.03;36.60;;;18.20;99.90;;;;;;5100039;28;20391;-80
2022/06/06 01:21:49;;;;;;;37.33;35.83;;;18.20;99.90;;;;;;5099145;28;20444;-81
2022/06/06 01:24:46;;;;;;;38.87;37.37;;;18.20;99.90;;;;;;5097403;28;20442;-79
2022/06/06 01:27:37;;;;;;;38.43;36.83;;;18.10;99.90;;;;;;5067377;28;20411;-80
2022/06/06 01:30:12;;;;;;;37.57;35.97;;;18.20;99.90;;;;;;5100710;28;20456;-81
2022/06/06 01:32:43;;;;;;;37.27;35.67;;;18.10;99.90;;;;;;5098877;28;20530;-79
2022/06/06 01:35:21;;;;;;;31.83;30.33;;;18.20;99.90;;;;;;5099720;28;20533;-81
2022/06/06 01:37:49;;;;;;;34.30;32.70;;;18.10;99.90;;;;;;5100417;28;20525;-79
2022/06/06 01:40:18;;;;;;;34.03;32.53;;;18.10;99.90;;;;;;5103228;28;20446;-79
2022/06/06 01:42:53;;;;;;;36.07;34.47;;;18.10;99.90;;;;;;5103496;28;20546;-80
2022/06/06 01:45:29;;;;;;;37.83;36.23;;;18.10;99.90;;;;;;5105163;28;20497;-80
2022/06/06 01:48:05;;;;;;;35.37;33.87;;;18.10;99.90;;;;;;5105036;28;20930;-82
2022/06/06 01:50:36;;;;;;;37.30;35.70;;;18.10;99.90;;;;;;5105159;28;20937;-80
2022/06/06 01:53:07;;;;;;;30.83;29.43;;;18.00;99.90;;;;;;5104398;28;20436;-80
2022/06/06 01:55:38;;;;;;;28.03;26.83;;;18.10;99.90;;;;;;5104642;28;20438;-79
2022/06/06 01:58:10;;;;;;;25.47;24.27;;;18.00;99.90;;;;;;5106482;28;20459;-80
2022/06/06 02:00:40;;;;;;;28.80;27.50;;;18.00;99.90;;;;;;5105674;28;20916;-80
2022/06/06 02:03:10;;;;;;;33.30;31.80;;;18.00;99.90;;;;;;5105713;28;20448;-79
2022/06/06 02:05:38;;;;;;;40.60;39.00;;;18.00;99.90;;;;;;5102799;28;20464;-80
2022/06/06 02:08:07;;;;;;;34.70;33.20;;;18.00;99.90;;;;;;5103287;28;20917;-80
2022/06/06 02:10:36;;;;;;;31.27;29.97;;;18.00;99.90;;;;;;5104427;28;20475;-79
2022/06/06 02:13:04;;;;;;;27.10;25.90;;;18.00;99.90;;;;;;5102607;28;20446;-79
2022/06/06 02:15:33;;;;;;;32.50;31.10;;;18.00;99.90;;;;;;5104068;28;20431;-80
2022/06/06 02:18:02;;;;;;;31.80;30.40;;;17.90;99.90;;;;;;5102948;28;20442;-80
2022/06/06 02:20:32;;;;;;;36.67;35.17;;;17.90;99.90;;;;;;5102169;28;20452;-80
2022/06/06 02:23:01;;;;;;;37.90;36.30;;;17.90;99.90;;;;;;5103245;28;20929;-80
2022/06/06 02:25:31;;;;;;;37.10;35.60;;;17.90;99.90;;;;;;5102594;28;20438;-80
2022/06/06 02:28:01;;;;;;;35.03;33.60;;;17.90;99.90;;;;;;5101130;28;20448;-79
2022/06/06 02:30:31;;;;;;;32.50;31.10;;;17.90;99.90;;;;;;5101906;28;20418;-79
2022/06/06 02:33:00;;;;;;;30.97;29.50;;;17.90;99.90;;;;;;5101720;28;20451;-81
2022/06/06 02:35:32;;;;;;;33.10;31.70;;;17.90;99.90;;;;;;5104015;28;20468;-79
2022/06/06 02:38:01;;;;;;;35.40;33.90;;;17.90;99.90;;;;;;5101199;28;20819;-79
2022/06/06 02:40:30;;;;;;;34.90;33.40;;;17.90;99.90;;;;;;5101684;28;20403;-79
2022/06/06 02:42:59;;;;;;;34.23;32.83;;;17.90;99.90;;;;;;5103211;28;20998;-80
2022/06/06 02:45:27;;;;;;;34.10;32.60;;;17.80;99.90;;;;;;5100540;28;20513;-79
2022/06/06 02:47:57;;;;;;;32.23;30.83;;;17.80;99.90;;;;;;5100904;28;20448;-79
2022/06/06 02:50:28;;;;;;;33.83;32.37;;;17.80;99.90;;;;;;5101714;28;20447;-80
2022/06/06 02:52:59;;;;;;;32.37;30.97;;;17.80;99.90;;;;;;5100840;28;20486;-79
2022/06/06 02:55:28;;;;;;;33.80;32.40;;;17.80;99.90;;;;;;5101470;28;20498;-79
2022/06/06 02:57:56;;;;;;;33.47;32.00;;;17.80;99.90;;;;;;5102311;28;20969;-80
2022/06/06 03:00:26;;;;;;;31.40;29.90;;;17.80;99.90;;;;;;5100732;28;20444;-80
2022/06/06 03:02:55;;;;;;;33.73;32.13;;;17.80;99.90;;;;;;5101373;28;20456;-79
2022/06/06 03:05:27;;;;;;;34.40;32.80;;;17.70;99.90;;;;;;5100706;28;20482;-80
2022/06/06 03:08:11;;;;;;;35.50;33.90;;;17.70;99.90;;;;;;5100621;28;20444;-79
2022/06/06 03:10:55;;;;;;;35.30;33.60;;;17.70;99.90;;;;;;5100442;28;20418;-79
2022/06/06 03:13:36;;;;;;;34.00;32.30;;;17.70;99.90;;;;;;5101792;28;20775;-79
2022/06/06 03:22:21;;;;;;;36.30;34.40;;;17.70;99.90;;;;;;5103174;28;20444;-80
2022/06/06 03:25:01;;;;;;;35.30;33.50;;;17.60;99.90;;;;;;5100491;28;20464;-79
2022/06/06 03:27:42;;;;;;;35.53;33.43;;;17.60;99.90;;;;;;5098716;28;21006;-79
2022/06/06 03:30:21;;;;;;;34.23;32.40;;;17.60;99.90;;;;;;5098736;28;20483;-78
2022/06/06 03:33:03;;;;;;;38.00;35.90;;;17.60;99.90;;;;;;5099554;28;20515;-78
2022/06/06 03:35:39;;;;;;;41.27;38.87;;;17.60;99.90;;;;;;5099359;28;20443;-78
2022/06/06 03:38:15;;;;;;;38.90;36.60;;;17.60;99.90;;;;;;5098791;28;20455;-79
2022/06/06 03:40:57;;;;;;;40.33;37.90;;;17.60;99.90;;;;;;5099700;28;20443;-79
2022/06/06 03:43:35;;;;;;;41.90;39.30;;;17.60;99.90;;;;;;5102464;28;20440;-81
2022/06/06 03:46:14;;;;;;;42.43;39.73;;;17.50;99.90;;;;;;5106861;28;20451;-81
2022/06/06 03:48:51;;;;;;;41.53;38.83;;;17.50;99.90;;;;;;5103128;28;20436;-78
2022/06/06 03:51:32;;;;;;;41.63;39.03;;;17.50;99.90;;;;;;5103073;28;20437;-79
2022/06/06 03:54:14;;;;;;;41.07;38.50;;;17.50;99.90;;;;;;5102099;28;20438;-79
2022/06/06 03:57:03;;;;;;;45.10;42.20;;;17.50;99.90;;;;;;5104126;28;20844;-80
2022/06/06 03:59:31;;;;;;;42.87;40.07;;;17.50;99.90;;;;;;5104365;28;20500;-80
2022/06/06 04:02:04;;;;;;;43.63;40.83;;;17.50;99.90;;;;;;5102731;28;20427;-79
2022/06/06 04:04:33;;;;;;;47.13;44.10;;;17.40;99.90;;;;;;5103018;28;20500;-80
2022/06/06 04:07:04;;;;;;;44.60;41.67;;;17.40;99.90;;;;;;5103555;28;20471;-81
2022/06/06 04:09:34;;;;;;;45.40;42.30;;;17.40;99.90;;;;;;5101628;28;20897;-80
2022/06/06 04:12:19;;;;;;;45.43;42.17;;;17.50;99.90;;;;;;5102025;28;20468;-79
2022/06/06 04:14:55;;;;;;;45.77;42.57;;;17.40;99.90;;;;;;5104675;28;20454;-80
2022/06/06 04:17:37;;;;;;;46.03;42.50;;;17.40;99.90;;;;;;5101799;28;20436;-80
2022/06/06 04:20:20;;;;;;;45.30;42.20;;;17.40;99.90;;;;;;5102551;28;20423;-80
2022/06/06 04:23:03;;;;;;;46.07;42.80;;;17.40;99.90;;;;;;5103417;28;20417;-80
2022/06/06 04:25:40;;;;;;;44.97;41.77;;;17.40;99.90;;;;;;5102479;28;20446;-80
2022/06/06 04:28:16;;;;;;;48.00;44.53;;;17.40;99.90;;;;;;5103205;28;20476;-79
2022/06/06 04:30:55;;;;;;;45.70;42.10;;;17.40;99.90;;;;;;5099661;28;20525;-79
2022/06/06 04:33:28;;;;;;;46.40;42.70;;;17.40;99.90;;;;;;5098579;28;20834;-79
2022/06/06 04:36:07;;;;;;;50.03;46.40;;;17.40;99.90;;;;;;5097100;28;20503;-78
2022/06/06 04:38:44;;;;;;;53.50;49.57;;;17.40;99.90;;;;;;5100241;28;20476;-80
2022/06/06 04:41:18;;;;;;;47.77;44.00;;;17.40;99.90;;;;;;5103697;28;20426;-80
2022/06/06 04:43:54;;;;;;;47.87;44.17;;;17.40;99.90;;;;;;5096574;28;20411;-78
2022/06/06 04:46:30;;;;;;;45.30;41.77;;;17.40;99.90;;;;;;5102557;28;20496;-80
2022/06/06 04:49:00;;;;;;;46.37;42.97;;;17.30;99.90;;;;;;5101211;28;20470;-78
2022/06/06 04:51:29;;;;;;;46.80;43.50;;;17.30;99.90;;;;;;5102574;28;20448;-80
2022/06/06 04:53:58;;;;;;;43.70;40.37;;;17.30;99.90;;;;;;5101298;28;20475;-79
2022/06/06 04:56:28;;;;;;;44.53;41.23;;;17.30;99.90;;;;;;5100052;28;20455;-79
2022/06/06 04:59:01;;;;;;;45.03;41.60;;;17.30;99.90;;;;;;5101634;28;20493;-81
2022/06/06 05:01:29;;;;;;;44.20;41.17;;;17.20;99.90;;;;;;5101263;28;20476;-78
2022/06/06 05:03:58;;;;;;;43.80;40.57;;;17.20;99.90;;;;;;5103661;28;20487;-80
2022/06/06 05:06:51;;;;;;;40.63;37.80;;;17.10;99.90;;;;;;5102310;28;20448;-81
2022/06/06 05:09:38;;;;;;;42.57;39.57;;;17.10;99.90;;;;;;5103109;28;20412;-79
2022/06/06 05:12:15;;;;;;;43.23;40.07;;;17.10;99.90;;;;;;5098860;28;20824;-79
2022/06/06 05:15:04;;;;;;;43.37;40.40;;;17.00;99.90;;;;;;5099983;28;20468;-80
2022/06/06 05:17:55;;;;;;;42.37;39.27;;;17.00;99.90;;;;;;5103936;28;20769;-80
2022/06/06 05:20:47;;;;;;;44.73;41.27;;;17.00;99.90;;;;;;5100948;28;20508;-77
2022/06/06 05:23:36;;;;;;;42.23;39.17;;;17.00;99.90;;;;;;5100695;28;20450;-78
2022/06/06 05:26:19;;;;;;;43.87;40.43;;;17.00;99.90;;;;;;5102433;28;20435;-80
2022/06/06 05:28:59;;;;;;;44.73;41.33;;;16.90;99.90;;;;;;5098479;28;20531;-79
2022/06/06 05:31:45;;;;;;;45.60;42.37;;;16.90;99.90;;;;;;5098038;28;20526;-78
2022/06/06 05:34:17;;;;;;;41.17;37.97;;;16.90;99.90;;;;;;5099756;28;20442;-81
2022/06/06 05:37:14;;;;;;;43.03;40.07;;;16.90;99.90;;;;;;5100294;28;20467;-77
2022/06/06 05:40:03;;;;;;;42.77;39.83;;;16.90;99.90;;;;;;5098124;28;20465;-80
2022/06/06 05:42:52;;;;;;;44.60;41.43;;;16.90;99.90;;;;;;5100443;28;20437;-80
2022/06/06 05:45:30;;;;;;;41.47;38.57;;;16.90;99.90;;;;;;5099253;28;20484;-81
2022/06/06 05:48:11;;;;;;;40.70;37.90;;;16.90;99.90;;;;;;5099037;28;20834;-80
2022/06/06 05:50:57;;;;;;;39.27;36.37;;;16.90;99.90;;;;;;5100884;28;20913;-80
2022/06/06 05:53:40;;;;;;;42.37;39.27;;;16.90;99.90;;;;;;5100683;28;20395;-79
2022/06/06 05:56:42;;;;;;;38.63;35.90;;;16.90;99.90;;;;;;5097483;28;20492;-79
2022/06/06 05:59:30;;;;;;;41.20;38.40;;;16.90;99.90;;;;;;5098859;28;20575;-79
2022/06/06 06:02:17;;;;;;;40.40;37.60;;;16.90;99.90;;;;;;5099212;28;20548;-79
2022/06/06 06:04:59;;;;;;;40.70;37.67;;;16.90;99.90;;;;;;5100608;28;20518;-79
2022/06/06 06:07:34;;;;;;;42.13;39.20;;;17.00;99.90;;;;;;5099036;28;20438;-79
2022/06/06 06:10:12;;;;;;;40.13;37.37;;;17.00;99.90;;;;;;5098265;28;20780;-79
2022/06/06 06:12:58;;;;;;;40.13;37.27;;;17.00;99.90;;;;;;5097095;28;20506;-77
2022/06/06 06:15:33;;;;;;;40.77;37.87;;;17.00;99.90;;;;;;5100489;28;20502;-80
2022/06/06 06:18:07;;;;;;;39.03;36.37;;;17.00;99.90;;;;;;5097433;28;20905;-78
2022/06/06 06:20:43;;;;;;;40.77;37.97;;;17.00;99.90;;;;;;5101324;28;21018;-80
2022/06/06 06:23:16;;;;;;;39.43;36.80;;;17.00;99.90;;;;;;5097754;28;20440;-78
2022/06/06 06:25:47;;;;;;;38.53;36.00;;;17.00;99.90;;;;;;5098954;28;20474;-78
2022/06/06 06:28:16;;;;;;;37.50;34.77;;;17.00;99.90;;;;;;5099810;28;20464;-80
2022/06/06 06:30:58;;;;;;;38.30;36.00;;;17.00;99.90;;;;;;5101833;28;20407;-78
2022/06/06 06:33:43;;;;;;;35.40;33.00;;;17.10;99.90;;;;;;5101479;28;20392;-80
2022/06/06 06:36:41;;;;;;;35.47;33.27;;;17.10;99.90;;;;;;5100888;28;20411;-79
2022/06/06 06:39:40;;;;;;;36.03;33.70;;;17.10;99.90;;;;;;5099103;28;20993;-79
2022/06/06 06:42:28;;;;;;;31.83;29.67;;;17.10;99.90;;;;;;5100865;28;20966;-80
2022/06/06 06:45:01;;;;;;;33.70;31.40;;;17.00;99.90;;;;;;5101883;28;20529;-81
2022/06/06 06:47:33;;;;;;;32.63;30.57;;;17.10;99.90;;;;;;5100108;28;20473;-80
2022/06/06 06:50:11;;;;;;;34.23;32.33;;;17.10;99.90;;;;;;5101153;28;20401;-77
2022/06/06 06:52:54;;;;;;;31.70;29.70;;;17.10;99.90;;;;;;5100324;28;20480;-80
2022/06/06 06:55:35;;;;;;;34.40;32.20;;;17.10;99.90;;;;;;5101076;28;20966;-77
2022/06/06 06:58:30;;;;;;;33.90;31.70;;;17.10;99.90;;;;;;5101006;28;20395;-79
2022/06/06 07:01:03;;;;;;;32.90;30.87;;;17.20;99.90;;;;;;5099132;28;20446;-78
2022/06/06 07:09:54;;;;;;;30.80;28.77;;;17.70;99.90;;;;;;5099744;28;20439;-79
2022/06/06 07:12:37;;;;;;;30.27;28.40;;;17.90;99.90;;;;;;5099757;28;20440;-78
2022/06/06 07:15:18;;;;;;;34.13;31.97;;;18.00;99.90;;;;;;5102232;28;20506;-80
2022/06/06 07:17:50;;;;;;;32.77;30.93;;;18.00;99.90;;;;;;5101609;28;20476;-78
2022/06/06 07:20:20;;;;;;;32.47;30.47;;;18.00;99.90;;;;;;5102408;28;20547;-80
2022/06/06 07:23:03;;;;;;;34.07;32.07;;;18.10;99.90;;;;;;5101432;28;20481;-80
2022/06/06 07:25:39;;;;;;;32.33;30.23;;;18.10;99.90;;;;;;5098322;28;20442;-77
2022/06/06 07:28:09;;;;;;;32.07;30.07;;;18.10;99.90;;;;;;5099676;28;20428;-79
2022/06/06 07:30:42;;;;;;;31.40;29.37;;;18.00;99.90;;;;;;5099795;28;20445;-79
2022/06/06 07:33:31;;;;;;;30.60;28.70;;;18.00;99.90;;;;;;5100901;28;20488;-78
2022/06/06 07:36:12;;;;;;;30.60;28.70;;;18.00;99.90;;;;;;5099036;28;20447;-78
2022/06/06 07:38:50;;;;;;;31.87;29.67;;;18.00;99.90;;;;;;5100815;28;20440;-78
2022/06/06 07:41:30;;;;;;;34.87;32.67;;;18.00;99.90;;;;;;5099780;28;20817;-77
2022/06/06 07:44:15;;;;;;;33.37;31.17;;;18.10;99.90;;;;;;5100490;28;20493;-82
2022/06/06 07:46:55;;;;;;;33.20;31.00;;;18.30;99.90;;;;;;5107186;28;20420;-78
2022/06/06 07:49:33;;;;;;;33.13;30.93;;;18.40;99.90;;;;;;5106005;28;20438;-79
2022/06/06 07:52:12;;;;;;;31.57;29.47;;;18.50;99.90;;;;;;5105477;28;20477;-78
2022/06/06 07:55:00;;;;;;;29.97;27.80;;;18.60;99.90;;;;;;5105234;28;20464;-79
2022/06/06 07:57:37;;;;;;;29.77;27.67;;;18.60;99.90;;;;;;5103224;28;20535;-80
2022/06/06 08:00:10;;;;;;;30.27;28.17;;;18.60;99.90;;;;;;5104795;28;20444;-80
2022/06/06 08:02:58;;;;;;;30.50;28.60;;;18.60;99.90;;;;;;5101698;28;21029;-78
2022/06/06 08:06:00;;;;;;;28.87;26.80;;;18.60;99.90;;;;;;5090114;28;20472;-79
2022/06/06 08:08:46;;;;;;;29.30;27.37;;;18.50;99.90;;;;;;5102345;28;20438;-79
2022/06/06 08:11:20;;;;;;;30.17;28.10;;;18.50;99.90;;;;;;5102338;28;20421;-78
2022/06/06 08:14:01;;;;;;;28.43;26.53;;;18.40;99.90;;;;;;5097950;28;20964;-78
2022/06/06 08:16:40;;;;;;;29.67;27.80;;;18.40;99.90;;;;;;5099787;28;20929;-80
2022/06/06 08:19:35;;;;;;;30.33;28.17;;;18.40;99.90;;;;;;5099985;28;20437;-79
2022/06/06 08:22:05;;;;;;;30.73;28.57;;;18.40;99.90;;;;;;5099013;28;20448;-81
2022/06/06 08:24:36;;;;;;;31.67;29.40;;;18.40;99.90;;;;;;5102463;28;20464;-80
2022/06/06 08:27:27;;;;;;;32.70;30.47;;;18.40;99.90;;;;;;5103829;28;20421;-79
2022/06/06 08:29:59;;;;;;;33.73;31.47;;;18.30;99.90;;;;;;5099188;28;20448;-82
2022/06/06 08:32:29;;;;;;;35.00;32.60;;;18.30;99.90;;;;;;5101202;28;20497;-82
2022/06/06 08:34:58;;;;;;;34.13;31.87;;;18.30;99.90;;;;;;5100583;28;20460;-81
2022/06/06 08:38:00;;;;;;;33.80;31.50;;;18.30;99.90;;;;;;5100421;28;20560;-80
2022/06/06 08:40:55;;;;;;;33.80;31.50;;;18.30;99.90;;;;;;5099629;28;20899;-80
2022/06/06 08:43:37;;;;;;;34.63;32.17;;;18.30;99.90;;;;;;5101871;28;20779;-82
2022/06/06 08:46:20;;;;;;;36.67;34.37;;;18.40;99.90;;;;;;5103999;28;20441;-81
2022/06/06 08:49:10;;;;;;;36.93;34.63;;;18.40;99.90;;;;;;5104595;28;20889;-81
2022/06/06 08:51:51;;;;;;;38.43;35.77;;;18.50;99.90;;;;;;5101793;28;20441;-80
2022/06/06 08:55:02;;;;;;;35.60;33.20;;;18.70;99.90;;;;;;5104066;28;20499;-82
2022/06/06 08:57:51;;;;;;;35.93;33.50;;;18.80;99.90;;;;;;5041532;28;20455;-82
2022/06/06 09:00:31;;;;;;;36.40;33.90;;;18.80;99.90;;;;;;5098608;28;21016;-80
2022/06/06 09:03:49;;;;;;;35.93;33.43;;;18.80;99.90;;;;;;5103820;28;20517;-82
2022/06/06 09:07:01;;;;;;;34.63;32.20;;;18.90;99.90;;;;;;5106487;28;20503;-80
2022/06/06 09:09:53;;;;;;;34.80;32.40;;;19.00;99.90;;;;;;5096472;28;20467;-81
2022/06/06 09:12:54;;;;;;;33.80;31.50;;;19.10;99.90;;;;;;5108017;28;20512;-79
2022/06/06 09:16:02;;;;;;;32.13;29.90;;;19.10;99.90;;;;;;5106549;28;20490;-79
2022/06/06 09:19:08;;;;;;;32.93;30.47;;;19.20;99.90;;;;;;5040819;28;20425;-78
2022/06/06 09:22:07;;;;;;;33.93;31.30;;;19.20;99.90;;;;;;5100785;28;20468;-80
2022/06/06 09:25:08;;;;;;;30.77;28.50;;;19.30;99.90;;;;;;5100974;28;20478;-80
2022/06/06 09:28:26;;;;;;;32.63;30.13;;;19.30;99.90;;;;;;5100465;28;20459;-79
2022/06/06 09:31:34;;;;;;;27.60;25.47;;;19.30;99.90;;;;;;5097014;28;20448;-79
2022/06/06 09:34:40;;;;;;;31.63;29.27;;;19.30;99.90;;;;;;5094583;28;20469;-79
2022/06/06 09:37:31;;;;;;;30.13;27.63;;;19.40;99.90;;;;;;5086980;28;20493;-80
2022/06/06 09:40:19;;;;;;;26.57;24.67;;;19.50;99.90;;;;;;5093180;28;20433;-81
2022/06/06 09:43:08;;;;;;;25.47;23.47;;;19.80;99.90;;;;;;5094799;28;20913;-79
2022/06/06 09:46:07;;;;;;;27.47;25.37;;;19.90;99.90;;;;;;5094891;28;20464;-80
2022/06/06 09:49:04;;;;;;;23.27;21.30;;;20.10;99.90;;;;;;5094923;28;20790;-80
2022/06/06 09:52:06;;;;;;;21.90;20.00;;;20.30;99.90;;;;;;5094672;28;20508;-80
2022/06/06 10:01:05;;;;;;;18.53;17.03;;;20.50;99.90;;;;;;5102053;28;20491;-78
2022/06/06 10:04:04;;;;;;;16.97;15.47;;;20.60;99.90;;;;;;5107667;28;20520;-81
2022/06/06 10:07:11;;;;;;;14.07;12.87;;;20.80;99.90;;;;;;5104998;28;20486;-80
2022/06/06 10:10:13;;;;;;;15.57;14.20;;;20.90;99.90;;;;;;5101480;28;20450;-82
2022/06/06 10:12:59;;;;;;;13.27;12.03;;;21.00;99.90;;;;;;5105076;28;20813;-81
2022/06/06 10:15:46;;;;;;;12.33;11.17;;;21.10;99.90;;;;;;5108619;28;20459;-79
2022/06/06 10:18:35;;;;;;;13.70;12.50;;;21.20;99.90;;;;;;5109210;28;20901;-81
2022/06/06 10:21:38;;;;;;;12.10;11.10;;;21.30;99.90;;;;;;5104261;28;20464;-80
2022/06/06 10:24:34;;;;;;;12.17;11.17;;;21.40;99.90;;;;;;5092018;28;20510;-80
2022/06/06 10:27:16;;;;;;;12.23;11.07;;;21.50;99.90;;;;;;5103142;28;20428;-81
2022/06/06 10:30:12;;;;;;;11.63;10.73;;;21.60;99.90;;;;;;5101840;28;20941;-81
2022/06/06 10:33:13;;;;;;;13.50;12.40;;;21.60;99.90;;;;;;5106540;28;20444;-80
2022/06/06 10:36:11;;;;;;;16.10;14.90;;;21.70;99.90;;;;;;5092221;28;20963;-81
2022/06/06 10:39:30;;;;;;;17.00;15.50;;;21.80;99.80;;;;;;5079890;28;20490;-82
2022/06/06 10:42:18;;;;;;;14.50;13.20;;;21.80;99.40;;;;;;5099160;28;20519;-81
2022/06/06 10:45:22;;;;;;;20.63;18.93;;;21.90;99.10;;;;;;5098309;28;20452;-78
2022/06/06 10:48:17;;;;;;;11.20;10.20;;;21.90;98.50;;;;;;5099173;28;20461;-81
2022/06/06 10:51:40;;;;;;;12.70;11.50;;;21.90;97.90;;;;;;5104154;28;20444;-79
2022/06/06 10:55:08;;;;;;;10.20;9.10;;;21.90;97.60;;;;;;5037197;28;20493;-81
2022/06/06 10:58:12;;;;;;;10.40;9.40;;;21.80;97.40;;;;;;5100553;28;20574;-82
2022/06/06 11:01:11;;;;;;;8.70;7.80;;;21.70;97.30;;;;;;5058375;28;20455;-82
2022/06/06 11:04:13;;;;;;;9.30;8.40;;;21.60;97.10;;;;;;5098193;28;20519;-81
2022/06/06 11:07:00;;;;;;;8.93;8.13;;;21.50;96.90;;;;;;5091857;28;20478;-81
2022/06/06 11:09:52;;;;;;;9.33;8.23;;;21.40;96.80;;;;;;5099567;28;20452;-80
2022/06/06 11:12:55;;;;;;;9.73;8.80;;;21.30;96.70;;;;;;5098824;28;20786;-83
2022/06/06 11:15:34;;;;;;;13.67;12.47;;;21.30;96.50;;;;;;5097572;28;20476;-80
2022/06/06 11:18:39;;;;;;;10.70;9.80;;;21.20;96.40;;;;;;5096605;28;20867;-81
2022/06/06 11:21:28;;;;;;;14.50;13.17;;;21.20;96.20;;;;;;5064018;28;20478;-81
2022/06/06 11:24:09;;;;;;;18.23;16.80;;;21.20;96.30;;;;;;5096093;28;20467;-82
2022/06/06 11:27:12;;;;;;;13.00;11.80;;;21.20;96.20;;;;;;5097218;28;20785;-80
2022/06/06 11:30:07;;;;;;;12.40;11.30;;;21.20;96.00;;;;;;5096061;28;20440;-83
2022/06/06 11:33:06;;;;;;;11.27;10.37;;;21.20;96.10;;;;;;5096268;28;20876;-80
2022/06/06 11:35:45;;;;;;;10.60;9.80;;;21.20;95.90;;;;;;5095340;28;20997;-81
2022/06/06 11:38:43;;;;;;;9.50;8.73;;;21.20;96.00;;;;;;5096288;28;20964;-80
2022/06/06 11:41:32;;;;;;;9.60;8.80;;;21.30;95.80;;;;;;5095625;28;20946;-80
2022/06/06 11:44:43;;;;;;;9.80;9.00;;;21.40;95.60;;;;;;5095704;28;20911;-81
2022/06/06 11:47:46;;;;;;;9.17;8.47;;;21.60;95.50;;;;;;5095901;28;20539;-81
2022/06/06 11:50:51;;;;;;;8.87;8.13;;;21.70;95.40;;;;;;5096411;28;20470;-81
2022/06/06 11:53:52;;;;;;;8.50;7.80;;;21.80;95.30;;;;;;5060329;28;21006;-80
2022/06/06 11:56:43;;;;;;;9.60;8.70;;;22.00;95.30;;;;;;5095281;28;20428;-82
2022/06/06 11:59:39;;;;;;;9.50;8.70;;;22.10;95.20;;;;;;5095197;28;20938;-82
2022/06/06 12:02:40;;;;;;;10.17;9.33;;;22.20;94.80;;;;;;5094864;28;20475;-79
2022/06/06 12:05:42;;;;;;;10.70;9.90;;;22.30;94.30;;;;;;5097013;28;20460;-81
2022/06/06 12:08:29;;;;;;;10.00;9.30;;;22.30;94.40;;;;;;5096476;28;20533;-81
2022/06/06 12:11:17;;;;;;;8.97;8.33;;;22.30;94.00;;;;;;5095398;28;20500;-80
2022/06/06 12:14:25;;;;;;;9.37;8.67;;;22.30;94.00;;;;;;5094905;28;20478;-81
2022/06/06 12:17:09;;;;;;;8.83;8.13;;;22.30;93.70;;;;;;5095031;28;20547;-80
2022/06/06 12:20:17;;;;;;;8.87;8.07;;;22.30;93.60;;;;;;5095027;28;20444;-79
2022/06/06 12:23:16;;;;;;;9.33;8.63;;;22.40;93.50;;;;;;5097683;28;20467;-78
2022/06/06 12:26:07;;;;;;;8.00;7.40;;;22.40;93.20;;;;;;5081677;28;20526;-81
2022/06/06 12:29:01;;;;;;;10.00;9.10;;;22.30;93.10;;;;;;5097270;28;20471;-82
2022/06/06 12:32:13;;;;;;;8.67;7.97;;;22.40;93.20;;;;;;5099369;28;20512;-82
2022/06/06 12:34:48;;;;;;;8.13;7.53;;;22.50;93.10;;;;;;5059699;28;20464;-83
2022/06/06 12:37:25;;;;;;;7.97;7.37;;;22.50;93.10;;;;;;5099751;28;20415;-82
2022/06/06 12:40:03;;;;;;;8.57;7.87;;;22.60;92.80;;;;;;5098428;28;20810;-82
2022/06/06 12:42:43;;;;;;;7.40;5.33;;;22.70;92.70;;;;;;5097278;28;20470;-80
2022/06/06 12:45:39;;;;;;;5.70;5.00;;;22.70;92.20;;;;;;5095771;28;20575;-81
2022/06/06 12:48:41;;;;;;;5.57;4.33;;;22.70;91.90;;;;;;5096524;28;20436;-80
2022/06/06 12:51:22;;;;;;;5.30;4.33;;;22.70;91.60;;;;;;5084078;28;20439;-80
2022/06/06 12:54:13;;;;;;;5.40;4.47;;;22.70;91.60;;;;;;5095428;28;20475;-82
2022/06/06 12:56:58;;;;;;;5.20;4.10;;;22.70;91.40;;;;;;5086076;28;20455;-80
2022/06/06 12:59:47;;;;;;;5.40;4.13;;;22.70;91.20;;;;;;5095985;28;20413;-81
2022/06/06 13:02:40;;;;;;;5.10;3.70;;;22.80;91.00;;;;;;5096408;28;20483;-80
2022/06/06 13:05:20;;;;;;;5.00;3.63;;;22.90;91.00;;;;;;5094928;28;20474;-82
2022/06/06 13:08:07;;;;;;;5.10;4.20;;;23.00;90.90;;;;;;5094700;28;20443;-80
2022/06/06 13:10:45;;;;;;;5.33;3.40;;;23.00;90.90;;;;;;5095335;28;20451;-80
2022/06/06 13:13:35;;;;;;;7.17;3.17;;;23.10;90.80;;;;;;5094140;28;20494;-82
2022/06/06 13:16:13;;;;;;;8.33;3.77;;;23.10;90.50;;;;;;5093944;28;20501;-80
2022/06/06 13:19:06;;;;;;;5.07;3.17;;;23.10;90.30;;;;;;5094124;28;20452;-82
2022/06/06 13:21:48;;;;;;;5.80;3.20;;;23.00;90.10;;;;;;5093750;28;20468;-82
2022/06/06 13:24:46;;;;;;;4.80;3.50;;;22.90;90.20;;;;;;5095256;28;20448;-83
2022/06/06 13:27:26;;;;;;;4.67;3.53;;;23.00;90.30;;;;;;5094019;28;20444;-80
2022/06/06 13:29:55;;;;;;;5.60;4.20;;;23.00;90.30;;;;;;5093785;28;20523;-82
2022/06/06 13:32:40;;;;;;;7.73;3.40;;;23.10;90.30;;;;;;5094101;28;20441;-81
2022/06/06 13:35:19;;;;;;;4.93;3.03;;;23.00;90.10;;;;;;5096433;28;20452;-81
2022/06/06 13:38:15;;;;;;;4.60;3.27;;;23.00;89.60;;;;;;5100220;28;20438;-80
2022/06/06 13:40:49;;;;;;;5.27;3.23;;;23.00;89.80;;;;;;5099115;28;20480;-79
2022/06/06 13:43:47;;;;;;;5.20;3.67;;;23.00;89.70;;;;;;5097684;28;20464;-81
2022/06/06 13:46:32;;;;;;;4.80;3.47;;;23.10;90.00;;;;;;5097705;28;20531;-81
2022/06/06 13:49:29;;;;;;;4.80;3.03;;;23.10;89.80;;;;;;5099257;28;20520;-81
2022/06/06 13:52:12;;;;;;;6.07;4.00;;;23.20;89.60;;;;;;5096624;28;20480;-81
2022/06/06 13:54:41;;;;;;;4.70;3.10;;;23.30;89.90;;;;;;5105704;28;20490;-82
2022/06/06 13:57:26;;;;;;;4.77;3.17;;;23.40;89.60;;;;;;5100371;28;20471;-81
2022/06/06 14:00:19;;;;;;;4.83;3.00;;;23.40;88.50;;;;;;5102327;28;20431;-82
2022/06/06 14:02:58;;;;;;;4.40;2.57;;;23.40;88.00;;;;;;5101175;28;20479;-82
2022/06/06 14:05:51;;;;;;;5.10;2.87;;;23.40;87.30;;;;;;5101173;28;20528;-83
2022/06/06 14:08:20;;;;;;;5.00;2.93;;;23.40;86.00;;;;;;5099388;28;20436;-82
2022/06/06 14:11:11;;;;;;;4.70;2.67;;;23.40;86.20;;;;;;5100170;28;20439;-81